Terminal Aerodrome Forecast
Issued by NWS Charleston, WV

Current Version | Previous Version | Text Only | Print | Product List | Glossary Off
Versions: 1 2 3 4 5 6 7 8 9 10 11 12 13 14 15 16 17 18 19 20 21 22 23 24

000
FTUS41 KRLX 180800 AAA
TAFHTS
TAF AMD
KHTS 180840Z 1809/1906 00000KT 6SM BR SKC
      TEMPO 1809/1811 4SM BR SCT002
     FM181300 00000KT 4SM BR FEW022
     FM181400 VRB03KT P6SM SKC=

USA.gov is the U.S. government's official web portal to all federal, state and local government web resources and services.